Old Somerset, Virginia
Current Conditions -  °F | °C
As of 9:35 AM on Saturday 01 Nov 2014 (Local Time) from KGVE Reporting Station
Overcast Overcast  
Wind Chill: 41°   Ceiling: 5000
Heat Index: 47°   Visibility: 10mi
Dew Point: 37°   Wind: 14mph
Humidity: 67%   Direction: 360°N
Pressure: 29.79"   Gusts: 21mph
Location:  38.2091°N, 78.2392°W
Report Text: KGVE 011335Z AUTO 36012G18KT 10SM OVC050 08/03 A2979 RMK AO1 T00830025
Loading
Personal Weather Stations






























Interactive Weather Map
Tropical Storm Tracking
New forecast layout! Learn more

10-Day Weather Forecast

Advertisements
Track Severe Weather on mobile